Terminal Aerodrome Forecast
Issued by NWS

Home | Current Version | Previous Version | Text Only | Print | Product List | Glossary On
Versions: 1 2 3 4 5 6 7 8 9 10 11 12 13
000
FTUS46 KPDT 302300
TAFDLS
TAF
KDLS 302320Z 3100/3124 31011KT P6SM BKN200
     FM310400 31007KT P6SM SCT060 SCT200
     FM310900 30011KT P6SM -SHRA SCT040 BKN060
     FM311600 31014G23KT P6SM VCSH SCT060 SCT100
     FM312000 32022G32KT P6SM FEW070 SCT120=

USA.gov is the U.S. government's official web portal to all federal, state and local government web resources and services.